Terminal Aerodrome Forecast
Issued by NWS Pueblo, CO

Home | Current Version | Previous Version | Text Only | Print | Product List | Glossary On
Versions: 1 2 3 4 5 6 7 8 9 10 11 12 13 14 15 16 17 18 19 20 21 22 23 24 25 26 27 28 29 30
000
FTUS45 KPUB 011728
TAFALS
TAF
KALS 011728Z 0118/0218 18007KT P6SM SCT200
     FM012000 17010KT P6SM VCTS SCT080CB BKN150
     FM020400 06008KT P6SM SCT080 BKN150
     FM020700 VRB05KT P6SM SCT070 BKN150=

USA.gov is the U.S. government's official web portal to all federal, state and local government web resources and services.